sensor_id;sensor_type;location;lat;lon;timestamp;pressure;altitude;pressure_sealevel;temperature;humidity
79376;BME280;68846;53.150;18.136;2023-04-07T00:00:24;101421.70;;;3.63;73.15
79376;BME280;68846;53.150;18.136;2023-04-07T00:03:12;101423.56;;;3.59;73.21
79376;BME280;68846;53.150;18.136;2023-04-07T00:05:39;101419.98;;;3.57;73.34
79376;BME280;68846;53.150;18.136;2023-04-07T00:08:05;101416.65;;;3.56;73.57
79376;BME280;68846;53.150;18.136;2023-04-07T00:10:33;101404.40;;;3.48;73.55
79376;BME280;68846;53.150;18.136;2023-04-07T00:13:00;101406.39;;;3.57;73.27
79376;BME280;68846;53.150;18.136;2023-04-07T00:15:26;101407.94;;;3.60;73.62
79376;BME280;68846;53.150;18.136;2023-04-07T00:17:53;101408.83;;;3.63;73.55
79376;BME280;68846;53.150;18.136;2023-04-07T00:20:20;101405.23;;;3.68;73.54
79376;BME280;68846;53.150;18.136;2023-04-07T00:22:47;101399.65;;;3.68;73.61
79376;BME280;68846;53.150;18.136;2023-04-07T00:25:14;101389.68;;;3.60;73.71
79376;BME280;68846;53.150;18.136;2023-04-07T00:27:41;101402.24;;;3.64;73.98
79376;BME280;68846;53.150;18.136;2023-04-07T00:30:08;101401.86;;;3.64;73.86
79376;BME280;68846;53.150;18.136;2023-04-07T00:32:35;101403.81;;;3.61;74.04
79376;BME280;68846;53.150;18.136;2023-04-07T00:35:02;101403.09;;;3.57;74.29
79376;BME280;68846;53.150;18.136;2023-04-07T00:37:29;101390.20;;;3.53;74.37
79376;BME280;68846;53.150;18.136;2023-04-07T00:39:57;101390.13;;;3.52;74.14
79376;BME280;68846;53.150;18.136;2023-04-07T00:42:25;101386.08;;;3.54;74.22
79376;BME280;68846;53.150;18.136;2023-04-07T00:44:51;101377.84;;;3.57;74.52
79376;BME280;68846;53.150;18.136;2023-04-07T00:47:19;101381.58;;;3.62;73.93
79376;BME280;68846;53.150;18.136;2023-04-07T00:49:45;101384.70;;;3.65;74.20
79376;BME280;68846;53.150;18.136;2023-04-07T00:52:13;101383.77;;;3.67;74.20
79376;BME280;68846;53.150;18.136;2023-04-07T00:54:41;101379.77;;;3.68;74.39
79376;BME280;68846;53.150;18.136;2023-04-07T00:57:08;101381.73;;;3.65;74.34
79376;BME280;68846;53.150;18.136;2023-04-07T00:59:35;101374.38;;;3.57;74.57
79376;BME280;68846;53.150;18.136;2023-04-07T01:02:09;101384.94;;;3.60;74.60
79376;BME280;68846;53.150;18.136;2023-04-07T01:05:17;101379.83;;;3.58;74.69
79376;BME280;68846;53.150;18.136;2023-04-07T01:07:51;101379.00;;;3.56;74.84
79376;BME280;68846;53.150;18.136;2023-04-07T01:10:31;101370.66;;;3.53;75.34
79376;BME280;68846;53.150;18.136;2023-04-07T01:13:22;101366.58;;;3.51;74.81
79376;BME280;68846;53.150;18.136;2023-04-07T01:15:56;101356.41;;;3.49;75.06
79376;BME280;68846;53.150;18.136;2023-04-07T01:18:31;101364.25;;;3.57;74.95
79376;BME280;68846;53.150;18.136;2023-04-07T01:21:13;101363.89;;;3.60;75.33
79376;BME280;68846;53.150;18.136;2023-04-07T01:26:31;101344.69;;;3.62;75.09
79376;BME280;68846;53.150;18.136;2023-04-07T01:31:29;101348.25;;;3.71;75.22
79376;BME280;68846;53.150;18.136;2023-04-07T01:33:58;101349.03;;;3.73;75.15
79376;BME280;68846;53.150;18.136;2023-04-07T01:36:28;101343.36;;;3.71;75.79
79376;BME280;68846;53.150;18.136;2023-04-07T01:38:58;101336.70;;;3.60;75.69
79376;BME280;68846;53.150;18.136;2023-04-07T01:41:26;101345.12;;;3.65;75.65
79376;BME280;68846;53.150;18.136;2023-04-07T01:43:54;101331.38;;;3.61;75.63
79376;BME280;68846;53.150;18.136;2023-04-07T01:46:23;101347.51;;;3.70;76.09
79376;BME280;68846;53.150;18.136;2023-04-07T01:48:51;101338.85;;;3.71;75.74
79376;BME280;68846;53.150;18.136;2023-04-07T01:51:20;101330.84;;;3.68;75.67
79376;BME280;68846;53.150;18.136;2023-04-07T01:53:47;101339.53;;;3.75;76.00
79376;BME280;68846;53.150;18.136;2023-04-07T01:56:15;101326.52;;;3.65;75.86
79376;BME280;68846;53.150;18.136;2023-04-07T01:58:44;101337.86;;;3.72;76.02
79376;BME280;68846;53.150;18.136;2023-04-07T02:01:14;101327.52;;;3.67;75.98
79376;BME280;68846;53.150;18.136;2023-04-07T02:06:14;101335.62;;;3.69;76.06
79376;BME280;68846;53.150;18.136;2023-04-07T02:08:48;101333.40;;;3.70;75.98
79376;BME280;68846;53.150;18.136;2023-04-07T02:11:17;101334.75;;;3.73;75.93
79376;BME280;68846;53.150;18.136;2023-04-07T02:13:47;101333.20;;;3.77;75.62
79376;BME280;68846;53.150;18.136;2023-04-07T02:16:15;101336.55;;;3.82;75.83
79376;BME280;68846;53.150;18.136;2023-04-07T02:18:43;101334.16;;;3.86;75.77
79376;BME280;68846;53.150;18.136;2023-04-07T02:21:14;101335.11;;;3.84;75.86
79376;BME280;68846;53.150;18.136;2023-04-07T02:23:41;101324.04;;;3.79;76.16
79376;BME280;68846;53.150;18.136;2023-04-07T02:26:08;101329.53;;;3.84;75.77
79376;BME280;68846;53.150;18.136;2023-04-07T02:28:35;101322.77;;;3.81;76.23
79376;BME280;68846;53.150;18.136;2023-04-07T02:31:03;101324.89;;;3.85;75.98
79376;BME280;68846;53.150;18.136;2023-04-07T02:33:31;101318.95;;;3.85;76.02
79376;BME280;68846;53.150;18.136;2023-04-07T02:35:58;101321.63;;;3.83;76.09
79376;BME280;68846;53.150;18.136;2023-04-07T02:38:24;101313.42;;;3.83;76.26
79376;BME280;68846;53.150;18.136;2023-04-07T02:40:51;101301.59;;;3.79;76.40
79376;BME280;68846;53.150;18.136;2023-04-07T02:43:19;101311.73;;;3.88;76.12
79376;BME280;68846;53.150;18.136;2023-04-07T02:45:46;101298.77;;;3.85;76.24
79376;BME280;68846;53.150;18.136;2023-04-07T02:48:13;101300.02;;;3.93;76.44
79376;BME280;68846;53.150;18.136;2023-04-07T02:50:40;101295.00;;;3.90;76.42
79376;BME280;68846;53.150;18.136;2023-04-07T02:53:07;101307.15;;;3.97;76.52
79376;BME280;68846;53.150;18.136;2023-04-07T02:55:34;101305.38;;;3.96;76.55
79376;BME280;68846;53.150;18.136;2023-04-07T02:58:01;101304.96;;;3.95;76.78
79376;BME280;68846;53.150;18.136;2023-04-07T03:00:40;101302.17;;;3.91;76.51
79376;BME280;68846;53.150;18.136;2023-04-07T03:03:14;101290.98;;;3.83;76.72
79376;BME280;68846;53.150;18.136;2023-04-07T03:05:43;101295.46;;;3.90;76.93
79376;BME280;68846;53.150;18.136;2023-04-07T03:08:10;101292.27;;;3.91;76.94
79376;BME280;68846;53.150;18.136;2023-04-07T03:10:37;101283.02;;;3.88;76.90
79376;BME280;68846;53.150;18.136;2023-04-07T03:13:04;101288.93;;;3.99;76.82
79376;BME280;68846;53.150;18.136;2023-04-07T03:15:33;101291.21;;;4.02;76.86
79376;BME280;68846;53.150;18.136;2023-04-07T03:18:00;101290.72;;;4.07;77.07
79376;BME280;68846;53.150;18.136;2023-04-07T03:20:28;101287.98;;;4.08;76.95
79376;BME280;68846;53.150;18.136;2023-04-07T03:22:56;101286.95;;;4.08;76.73
79376;BME280;68846;53.150;18.136;2023-04-07T03:25:26;101288.33;;;4.08;77.11
79376;BME280;68846;53.150;18.136;2023-04-07T03:27:53;101285.67;;;4.08;77.07
79376;BME280;68846;53.150;18.136;2023-04-07T03:30:20;101281.06;;;4.06;77.64
79376;BME280;68846;53.150;18.136;2023-04-07T03:32:47;101268.50;;;3.98;77.23
79376;BME280;68846;53.150;18.136;2023-04-07T03:35:14;101277.88;;;4.05;77.32
79376;BME280;68846;53.150;18.136;2023-04-07T03:37:43;101273.23;;;4.06;77.38
79376;BME280;68846;53.150;18.136;2023-04-07T03:40:13;101268.80;;;4.09;77.33
79376;BME280;68846;53.150;18.136;2023-04-07T03:42:40;101268.69;;;4.13;77.26
79376;BME280;68846;53.150;18.136;2023-04-07T03:45:07;101274.32;;;4.18;77.47
79376;BME280;68846;53.150;18.136;2023-04-07T03:47:36;101276.46;;;4.23;77.56
79376;BME280;68846;53.150;18.136;2023-04-07T03:50:04;101271.83;;;4.21;77.24
79376;BME280;68846;53.150;18.136;2023-04-07T03:52:34;101281.37;;;4.27;77.11
79376;BME280;68846;53.150;18.136;2023-04-07T03:55:08;101277.25;;;4.25;77.72
79376;BME280;68846;53.150;18.136;2023-04-07T03:57:35;101269.36;;;4.16;77.88
79376;BME280;68846;53.150;18.136;2023-04-07T04:00:02;101276.14;;;4.16;77.76
79376;BME280;68846;53.150;18.136;2023-04-07T04:02:42;101282.04;;;4.15;77.61
79376;BME280;68846;53.150;18.136;2023-04-07T04:05:10;101283.02;;;4.14;77.91
79376;BME280;68846;53.150;18.136;2023-04-07T04:07:37;101280.48;;;4.15;77.91
79376;BME280;68846;53.150;18.136;2023-04-07T04:10:06;101277.61;;;4.18;77.74
79376;BME280;68846;53.150;18.136;2023-04-07T04:12:36;101278.69;;;4.22;77.83
79376;BME280;68846;53.150;18.136;2023-04-07T04:15:07;101278.49;;;4.25;77.62
79376;BME280;68846;53.150;18.136;2023-04-07T04:17:34;101279.02;;;4.29;77.63
79376;BME280;68846;53.150;18.136;2023-04-07T04:20:03;101279.67;;;4.32;77.67
79376;BME280;68846;53.150;18.136;2023-04-07T04:22:39;101276.77;;;4.33;77.80
79376;BME280;68846;53.150;18.136;2023-04-07T04:25:06;101276.23;;;4.33;77.84
79376;BME280;68846;53.150;18.136;2023-04-07T04:27:34;101271.04;;;4.34;78.00
79376;BME280;68846;53.150;18.136;2023-04-07T04:30:16;101259.11;;;4.25;77.90
79376;BME280;68846;53.150;18.136;2023-04-07T04:32:49;101270.57;;;4.31;78.05
79376;BME280;68846;53.150;18.136;2023-04-07T04:35:17;101269.51;;;4.31;78.30
79376;BME280;68846;53.150;18.136;2023-04-07T04:37:58;101270.33;;;4.34;78.03
79376;BME280;68846;53.150;18.136;2023-04-07T04:40:25;101269.73;;;4.36;78.03
79376;BME280;68846;53.150;18.136;2023-04-07T04:42:53;101266.88;;;4.35;78.33
79376;BME280;68846;53.150;18.136;2023-04-07T04:45:20;101276.08;;;4.41;78.03
79376;BME280;68846;53.150;18.136;2023-04-07T04:47:48;101265.73;;;4.36;78.18
79376;BME280;68846;53.150;18.136;2023-04-07T04:50:16;101269.85;;;4.38;78.32
79376;BME280;68846;53.150;18.136;2023-04-07T04:52:44;101281.60;;;4.44;78.39
79376;BME280;68846;53.150;18.136;2023-04-07T04:55:17;101282.41;;;4.43;78.38
79376;BME280;68846;53.150;18.136;2023-04-07T04:57:44;101284.46;;;4.42;78.31
79376;BME280;68846;53.150;18.136;2023-04-07T05:00:13;101282.86;;;4.41;78.33
79376;BME280;68846;53.150;18.136;2023-04-07T05:02:40;101277.48;;;4.42;78.21
79376;BME280;68846;53.150;18.136;2023-04-07T05:05:08;101272.92;;;4.45;78.45
79376;BME280;68846;53.150;18.136;2023-04-07T05:07:35;101276.60;;;4.49;78.43
79376;BME280;68846;53.150;18.136;2023-04-07T05:10:05;101279.14;;;4.55;78.21
79376;BME280;68846;53.150;18.136;2023-04-07T05:12:32;101280.00;;;4.63;78.23
79376;BME280;68846;53.150;18.136;2023-04-07T05:15:01;101272.25;;;4.61;78.13
79376;BME280;68846;53.150;18.136;2023-04-07T05:17:27;101279.27;;;4.66;78.42
79376;BME280;68846;53.150;18.136;2023-04-07T05:19:55;101279.39;;;4.65;78.30
79376;BME280;68846;53.150;18.136;2023-04-07T05:22:32;101282.11;;;4.63;78.12
79376;BME280;68846;53.150;18.136;2023-04-07T05:24:59;101261.92;;;4.52;78.57
79376;BME280;68846;53.150;18.136;2023-04-07T05:27:26;101281.94;;;4.59;78.37
79376;BME280;68846;53.150;18.136;2023-04-07T05:29:54;101284.35;;;4.59;78.80
79376;BME280;68846;53.150;18.136;2023-04-07T05:32:27;101283.55;;;4.60;78.68
79376;BME280;68846;53.150;18.136;2023-04-07T05:34:54;101286.36;;;4.64;78.74
79376;BME280;68846;53.150;18.136;2023-04-07T05:37:22;101287.77;;;4.65;78.94
79376;BME280;68846;53.150;18.136;2023-04-07T05:39:50;101281.44;;;4.68;78.79
79376;BME280;68846;53.150;18.136;2023-04-07T05:42:18;101282.65;;;4.72;78.66
79376;BME280;68846;53.150;18.136;2023-04-07T05:44:45;101285.75;;;4.74;79.06
79376;BME280;68846;53.150;18.136;2023-04-07T05:47:12;101285.79;;;4.75;78.70
79376;BME280;68846;53.150;18.136;2023-04-07T05:49:39;101285.65;;;4.76;78.84
79376;BME280;68846;53.150;18.136;2023-04-07T05:52:12;101281.40;;;4.74;79.07
79376;BME280;68846;53.150;18.136;2023-04-07T05:54:41;101276.89;;;4.71;79.10
79376;BME280;68846;53.150;18.136;2023-04-07T05:57:09;101276.17;;;4.71;79.27
79376;BME280;68846;53.150;18.136;2023-04-07T05:59:37;101271.77;;;4.70;79.25
79376;BME280;68846;53.150;18.136;2023-04-07T06:02:04;101275.52;;;4.72;79.49
79376;BME280;68846;53.150;18.136;2023-04-07T06:04:31;101274.13;;;4.76;79.54
79376;BME280;68846;53.150;18.136;2023-04-07T06:07:00;101275.61;;;4.78;79.27
79376;BME280;68846;53.150;18.136;2023-04-07T06:09:27;101272.41;;;4.84;79.02
79376;BME280;68846;53.150;18.136;2023-04-07T06:11:54;101275.48;;;4.92;79.25
79376;BME280;68846;53.150;18.136;2023-04-07T06:14:23;101280.98;;;4.97;79.05
79376;BME280;68846;53.150;18.136;2023-04-07T06:16:50;101286.67;;;5.00;79.00
79376;BME280;68846;53.150;18.136;2023-04-07T06:19:17;101278.45;;;4.95;79.02
79376;BME280;68846;53.150;18.136;2023-04-07T06:21:44;101288.52;;;5.02;79.13
79376;BME280;68846;53.150;18.136;2023-04-07T06:24:11;101288.02;;;5.02;79.30
79376;BME280;68846;53.150;18.136;2023-04-07T06:26:39;101290.92;;;5.01;79.28
79376;BME280;68846;53.150;18.136;2023-04-07T06:29:07;101286.06;;;5.02;79.40
79376;BME280;68846;53.150;18.136;2023-04-07T06:31:34;101284.09;;;5.04;79.14
79376;BME280;68846;53.150;18.136;2023-04-07T06:34:00;101280.21;;;5.07;79.11
79376;BME280;68846;53.150;18.136;2023-04-07T06:36:27;101281.65;;;5.13;79.13
79376;BME280;68846;53.150;18.136;2023-04-07T06:38:54;101283.16;;;5.16;79.09
79376;BME280;68846;53.150;18.136;2023-04-07T06:41:21;101290.21;;;5.17;79.05
79376;BME280;68846;53.150;18.136;2023-04-07T06:43:49;101287.59;;;5.17;79.29
79376;BME280;68846;53.150;18.136;2023-04-07T06:46:19;101286.71;;;5.17;79.17
79376;BME280;68846;53.150;18.136;2023-04-07T06:48:46;101290.59;;;5.18;79.21
79376;BME280;68846;53.150;18.136;2023-04-07T06:51:13;101285.98;;;5.16;79.12
79376;BME280;68846;53.150;18.136;2023-04-07T06:53:40;101286.84;;;5.16;79.43
79376;BME280;68846;53.150;18.136;2023-04-07T06:56:08;101283.98;;;5.18;79.58
79376;BME280;68846;53.150;18.136;2023-04-07T06:58:36;101281.44;;;5.21;79.73
79376;BME280;68846;53.150;18.136;2023-04-07T07:01:04;101284.48;;;5.22;79.59
79376;BME280;68846;53.150;18.136;2023-04-07T07:03:32;101286.65;;;5.28;79.30
79376;BME280;68846;53.150;18.136;2023-04-07T07:06:00;101282.88;;;5.33;79.61
79376;BME280;68846;53.150;18.136;2023-04-07T07:08:28;101290.01;;;5.37;79.41
79376;BME280;68846;53.150;18.136;2023-04-07T07:10:55;101288.83;;;5.43;79.26
79376;BME280;68846;53.150;18.136;2023-04-07T07:13:24;101279.64;;;5.40;79.62
79376;BME280;68846;53.150;18.136;2023-04-07T07:15:52;101292.36;;;5.47;79.45
79376;BME280;68846;53.150;18.136;2023-04-07T07:18:20;101296.79;;;5.50;79.73
79376;BME280;68846;53.150;18.136;2023-04-07T07:20:47;101295.29;;;5.51;79.63
79376;BME280;68846;53.150;18.136;2023-04-07T07:23:14;101293.09;;;5.52;79.39
79376;BME280;68846;53.150;18.136;2023-04-07T07:25:41;101291.38;;;5.58;79.26
79376;BME280;68846;53.150;18.136;2023-04-07T07:28:08;101296.23;;;5.65;79.25
79376;BME280;68846;53.150;18.136;2023-04-07T07:30:38;101299.71;;;5.70;79.36
79376;BME280;68846;53.150;18.136;2023-04-07T07:33:06;101298.25;;;5.68;79.70
79376;BME280;68846;53.150;18.136;2023-04-07T07:35:33;101306.57;;;5.66;79.43
79376;BME280;68846;53.150;18.136;2023-04-07T07:38:00;101304.84;;;5.67;79.51
79376;BME280;68846;53.150;18.136;2023-04-07T07:40:27;101303.91;;;5.65;79.73
79376;BME280;68846;53.150;18.136;2023-04-07T07:42:54;101302.77;;;5.63;80.04
79376;BME280;68846;53.150;18.136;2023-04-07T07:45:20;101303.90;;;5.60;80.26
79376;BME280;68846;53.150;18.136;2023-04-07T07:47:47;101305.21;;;5.58;80.09
79376;BME280;68846;53.150;18.136;2023-04-07T07:50:15;101296.52;;;5.60;80.08
79376;BME280;68846;53.150;18.136;2023-04-07T07:52:41;101295.39;;;5.66;80.11
79376;BME280;68846;53.150;18.136;2023-04-07T07:55:08;101298.38;;;5.71;80.01
79376;BME280;68846;53.150;18.136;2023-04-07T07:57:35;101291.23;;;5.76;80.05
79376;BME280;68846;53.150;18.136;2023-04-07T08:00:02;101291.67;;;5.78;80.15
79376;BME280;68846;53.150;18.136;2023-04-07T08:02:39;101287.80;;;5.82;79.69
79376;BME280;68846;53.150;18.136;2023-04-07T08:05:07;101280.23;;;5.89;80.08
79376;BME280;68846;53.150;18.136;2023-04-07T08:07:34;101281.98;;;5.98;79.99
79376;BME280;68846;53.150;18.136;2023-04-07T08:10:01;101286.23;;;5.99;79.82
79376;BME280;68846;53.150;18.136;2023-04-07T08:12:28;101288.37;;;6.00;79.99
79376;BME280;68846;53.150;18.136;2023-04-07T08:14:55;101294.98;;;6.04;79.67
79376;BME280;68846;53.150;18.136;2023-04-07T08:17:21;101292.05;;;6.09;79.71
79376;BME280;68846;53.150;18.136;2023-04-07T08:19:48;101296.57;;;6.12;79.78
79376;BME280;68846;53.150;18.136;2023-04-07T08:22:16;101290.73;;;6.11;79.41
79376;BME280;68846;53.150;18.136;2023-04-07T08:24:45;101292.08;;;6.24;79.50
79376;BME280;68846;53.150;18.136;2023-04-07T08:27:13;101291.66;;;6.31;79.39
79376;BME280;68846;53.150;18.136;2023-04-07T08:29:40;101293.21;;;6.35;79.42
79376;BME280;68846;53.150;18.136;2023-04-07T08:32:07;101291.02;;;6.37;79.52
79376;BME280;68846;53.150;18.136;2023-04-07T08:34:34;101294.45;;;6.40;79.39
79376;BME280;68846;53.150;18.136;2023-04-07T08:37:01;101295.17;;;6.45;79.23
79376;BME280;68846;53.150;18.136;2023-04-07T08:39:28;101296.45;;;6.56;79.14
79376;BME280;68846;53.150;18.136;2023-04-07T08:41:55;101284.46;;;6.63;79.15
79376;BME280;68846;53.150;18.136;2023-04-07T08:44:24;101293.41;;;6.79;79.04
79376;BME280;68846;53.150;18.136;2023-04-07T08:46:55;101293.49;;;6.86;79.19
79376;BME280;68846;53.150;18.136;2023-04-07T08:49:26;101295.39;;;6.90;79.11
79376;BME280;68846;53.150;18.136;2023-04-07T08:51:55;101296.09;;;6.95;79.04
79376;BME280;68846;53.150;18.136;2023-04-07T08:54:24;101292.27;;;7.01;78.92
79376;BME280;68846;53.150;18.136;2023-04-07T08:56:51;101300.88;;;7.06;78.77
79376;BME280;68846;53.150;18.136;2023-04-07T08:59:18;101295.92;;;7.10;78.87
79376;BME280;68846;53.150;18.136;2023-04-07T09:01:51;101301.21;;;7.11;78.67
79376;BME280;68846;53.150;18.136;2023-04-07T09:04:18;101304.56;;;7.12;78.33
79376;BME280;68846;53.150;18.136;2023-04-07T09:06:46;101300.09;;;7.14;78.29
79376;BME280;68846;53.150;18.136;2023-04-07T09:09:14;101304.40;;;7.17;78.18
79376;BME280;68846;53.150;18.136;2023-04-07T09:11:41;101300.42;;;7.19;78.08
79376;BME280;68846;53.150;18.136;2023-04-07T09:14:08;101300.66;;;7.15;77.81
79376;BME280;68846;53.150;18.136;2023-04-07T09:16:35;101301.73;;;7.16;78.13
79376;BME280;68846;53.150;18.136;2023-04-07T09:19:02;101295.05;;;7.15;77.81
79376;BME280;68846;53.150;18.136;2023-04-07T09:21:49;101294.67;;;7.14;78.19
79376;BME280;68846;53.150;18.136;2023-04-07T09:24:23;101292.80;;;7.15;78.21
79376;BME280;68846;53.150;18.136;2023-04-07T09:27:11;101296.64;;;7.20;78.31
79376;BME280;68846;53.150;18.136;2023-04-07T09:29:40;101294.83;;;7.29;78.22
79376;BME280;68846;53.150;18.136;2023-04-07T09:32:08;101293.48;;;7.36;78.02
79376;BME280;68846;53.150;18.136;2023-04-07T09:34:37;101291.13;;;7.44;78.08
79376;BME280;68846;53.150;18.136;2023-04-07T09:37:06;101285.84;;;7.54;78.01
79376;BME280;68846;53.150;18.136;2023-04-07T09:39:48;101275.97;;;7.52;77.45
79376;BME280;68846;53.150;18.136;2023-04-07T09:42:16;101280.13;;;7.61;77.82
79376;BME280;68846;53.150;18.136;2023-04-07T09:44:43;101279.20;;;7.65;77.79
79376;BME280;68846;53.150;18.136;2023-04-07T09:47:11;101279.20;;;7.66;77.86
79376;BME280;68846;53.150;18.136;2023-04-07T09:49:49;101257.46;;;7.60;77.78
79376;BME280;68846;53.150;18.136;2023-04-07T09:52:21;101266.16;;;7.68;78.12
79376;BME280;68846;53.150;18.136;2023-04-07T09:54:48;101267.89;;;7.73;77.94
79376;BME280;68846;53.150;18.136;2023-04-07T09:57:17;101266.79;;;7.77;78.09
79376;BME280;68846;53.150;18.136;2023-04-07T09:59:47;101259.50;;;7.74;78.12
79376;BME280;68846;53.150;18.136;2023-04-07T10:02:15;101265.05;;;7.89;78.24
79376;BME280;68846;53.150;18.136;2023-04-07T10:04:43;101260.93;;;8.03;78.11
79376;BME280;68846;53.150;18.136;2023-04-07T10:07:10;101259.02;;;8.15;78.04
79376;BME280;68846;53.150;18.136;2023-04-07T10:09:37;101254.45;;;8.27;78.11
79376;BME280;68846;53.150;18.136;2023-04-07T10:12:05;101256.33;;;8.37;78.27
79376;BME280;68846;53.150;18.136;2023-04-07T10:14:34;101257.91;;;8.49;78.22
79376;BME280;68846;53.150;18.136;2023-04-07T10:17:02;101262.06;;;8.59;77.90
79376;BME280;68846;53.150;18.136;2023-04-07T10:19:31;101264.77;;;8.68;77.47
79376;BME280;68846;53.150;18.136;2023-04-07T10:22:01;101268.09;;;8.74;77.59
79376;BME280;68846;53.150;18.136;2023-04-07T10:27:05;101263.88;;;8.74;77.05
79376;BME280;68846;53.150;18.136;2023-04-07T10:29:36;101262.43;;;8.72;77.09
79376;BME280;68846;53.150;18.136;2023-04-07T10:32:06;101262.48;;;8.68;76.95
79376;BME280;68846;53.150;18.136;2023-04-07T10:37:21;101260.21;;;8.69;76.67
79376;BME280;68846;53.150;18.136;2023-04-07T10:45:09;101264.20;;;8.85;76.64
79376;BME280;68846;53.150;18.136;2023-04-07T10:50:26;101260.52;;;8.99;76.88
79376;BME280;68846;53.150;18.136;2023-04-07T10:53:13;101260.65;;;8.97;76.47
79376;BME280;68846;53.150;18.136;2023-04-07T10:55:41;101258.42;;;8.93;76.75
79376;BME280;68846;53.150;18.136;2023-04-07T11:03:31;101250.45;;;8.90;76.35
79376;BME280;68846;53.150;18.136;2023-04-07T11:06:10;101259.52;;;8.95;76.30
79376;BME280;68846;53.150;18.136;2023-04-07T11:08:40;101260.59;;;9.02;76.24
79376;BME280;68846;53.150;18.136;2023-04-07T11:11:12;101258.41;;;9.06;76.15
79376;BME280;68846;53.150;18.136;2023-04-07T11:13:49;101254.77;;;9.07;76.13
79376;BME280;68846;53.150;18.136;2023-04-07T11:16:18;101257.41;;;9.07;76.31
79376;BME280;68846;53.150;18.136;2023-04-07T11:18:46;101255.14;;;9.08;76.42
79376;BME280;68846;53.150;18.136;2023-04-07T11:21:17;101252.05;;;9.11;76.22
79376;BME280;68846;53.150;18.136;2023-04-07T11:23:45;101249.37;;;9.16;76.00
79376;BME280;68846;53.150;18.136;2023-04-07T11:26:13;101245.96;;;9.20;76.04
79376;BME280;68846;53.150;18.136;2023-04-07T11:28:49;101244.18;;;9.26;75.78
79376;BME280;68846;53.150;18.136;2023-04-07T11:31:28;101245.77;;;9.33;75.78
79376;BME280;68846;53.150;18.136;2023-04-07T11:33:58;101237.58;;;9.44;75.67
79376;BME280;68846;53.150;18.136;2023-04-07T11:36:31;101236.48;;;9.49;75.48
79376;BME280;68846;53.150;18.136;2023-04-07T11:39:01;101229.93;;;9.55;75.11
79376;BME280;68846;53.150;18.136;2023-04-07T11:41:30;101230.08;;;9.68;75.45
79376;BME280;68846;53.150;18.136;2023-04-07T11:44:09;101224.52;;;9.79;75.61
79376;BME280;68846;53.150;18.136;2023-04-07T11:46:53;101223.82;;;9.87;75.04
79376;BME280;68846;53.150;18.136;2023-04-07T11:49:20;101223.46;;;9.87;74.56
79376;BME280;68846;53.150;18.136;2023-04-07T11:52:05;101224.38;;;9.88;74.82
79376;BME280;68846;53.150;18.136;2023-04-07T11:54:40;101225.45;;;9.97;74.58
79376;BME280;68846;53.150;18.136;2023-04-07T11:57:08;101202.48;;;9.92;74.53
79376;BME280;68846;53.150;18.136;2023-04-07T11:59:39;101219.66;;;9.98;74.31
79376;BME280;68846;53.150;18.136;2023-04-07T12:02:06;101216.16;;;9.99;74.46
79376;BME280;68846;53.150;18.136;2023-04-07T12:04:34;101211.52;;;10.03;74.79
79376;BME280;68846;53.150;18.136;2023-04-07T12:07:07;101202.38;;;10.04;74.52
79376;BME280;68846;53.150;18.136;2023-04-07T12:09:35;101215.88;;;10.10;74.35
79376;BME280;68846;53.150;18.136;2023-04-07T12:12:04;101208.48;;;10.09;74.42
79376;BME280;68846;53.150;18.136;2023-04-07T12:14:32;101207.86;;;10.13;74.40
79376;BME280;68846;53.150;18.136;2023-04-07T12:16:59;101207.93;;;10.17;74.18
79376;BME280;68846;53.150;18.136;2023-04-07T12:19:30;101204.52;;;10.22;73.82
79376;BME280;68846;53.150;18.136;2023-04-07T12:22:01;101204.01;;;10.30;74.11
79376;BME280;68846;53.150;18.136;2023-04-07T12:24:27;101200.38;;;10.42;73.95
79376;BME280;68846;53.150;18.136;2023-04-07T12:26:54;101206.41;;;10.53;73.53
79376;BME280;68846;53.150;18.136;2023-04-07T12:29:22;101194.20;;;10.60;73.30
79376;BME280;68846;53.150;18.136;2023-04-07T12:31:49;101211.60;;;10.76;73.25
79376;BME280;68846;53.150;18.136;2023-04-07T12:34:17;101212.47;;;10.86;73.02
79376;BME280;68846;53.150;18.136;2023-04-07T12:36:44;101215.23;;;10.92;72.80
79376;BME280;68846;53.150;18.136;2023-04-07T12:39:11;101216.82;;;11.02;72.94
79376;BME280;68846;53.150;18.136;2023-04-07T12:41:38;101217.44;;;11.08;72.62
79376;BME280;68846;53.150;18.136;2023-04-07T12:44:05;101219.78;;;11.10;72.42
79376;BME280;68846;53.150;18.136;2023-04-07T12:46:32;101223.61;;;11.09;72.48
79376;BME280;68846;53.150;18.136;2023-04-07T12:48:59;101228.98;;;11.02;72.19
79376;BME280;68846;53.150;18.136;2023-04-07T12:51:26;101233.83;;;10.97;72.21
79376;BME280;68846;53.150;18.136;2023-04-07T12:53:54;101226.20;;;10.93;72.28
79376;BME280;68846;53.150;18.136;2023-04-07T12:56:20;101230.16;;;10.90;72.22
79376;BME280;68846;53.150;18.136;2023-04-07T12:58:50;101230.92;;;10.92;72.35
79376;BME280;68846;53.150;18.136;2023-04-07T13:01:17;101222.77;;;10.99;72.41
79376;BME280;68846;53.150;18.136;2023-04-07T13:03:44;101230.85;;;11.09;72.55
79376;BME280;68846;53.150;18.136;2023-04-07T13:06:12;101236.26;;;11.15;72.41
79376;BME280;68846;53.150;18.136;2023-04-07T13:08:39;101235.24;;;11.17;72.33
79376;BME280;68846;53.150;18.136;2023-04-07T13:11:06;101235.01;;;11.25;72.29
79376;BME280;68846;53.150;18.136;2023-04-07T13:13:33;101239.39;;;11.33;71.75
79376;BME280;68846;53.150;18.136;2023-04-07T13:16:00;101245.43;;;11.36;71.58
79376;BME280;68846;53.150;18.136;2023-04-07T13:18:27;101245.14;;;11.40;71.52
79376;BME280;68846;53.150;18.136;2023-04-07T13:20:54;101243.46;;;11.45;70.90
79376;BME280;68846;53.150;18.136;2023-04-07T13:23:21;101238.36;;;11.57;70.50